createdAt,value
2023-10-06T00:00:35.204Z,101286.78
2023-10-06T00:03:38.473Z,101290.16
2023-10-06T00:06:43.008Z,101287.13
2023-10-06T00:09:45.679Z,101287.69
2023-10-06T00:13:07.860Z,101281.75
2023-10-06T00:16:10.909Z,101293.53
2023-10-06T00:19:33.058Z,101293.38
2023-10-06T00:22:39.125Z,101286.72
2023-10-06T00:25:45.207Z,101293.25
2023-10-06T00:28:48.012Z,101279.53
2023-10-06T00:31:50.917Z,101284.53
2023-10-06T00:34:56.122Z,101287.69
2023-10-06T00:38:14.164Z,101290.44
2023-10-06T00:41:17.018Z,101289.75
2023-10-06T00:44:23.040Z,101286.97
2023-10-06T00:47:25.768Z,101284.47
2023-10-06T00:50:34.136Z,101283.66
2023-10-06T00:53:37.222Z,101285.41
2023-10-06T00:56:40.104Z,101285.13
2023-10-06T00:59:42.980Z,101285.13
2023-10-06T01:02:46.140Z,101291.50
2023-10-06T01:05:48.959Z,101295.41
2023-10-06T01:09:07.364Z,101295.50
2023-10-06T01:12:15.140Z,101299.97
2023-10-06T01:15:18.716Z,101295.22
2023-10-06T01:18:26.344Z,101299.53
2023-10-06T01:21:31.729Z,101299.38
2023-10-06T01:24:34.612Z,101300.06
2023-10-06T01:27:37.262Z,101302.41
2023-10-06T01:30:40.131Z,101299.91
2023-10-06T01:33:44.751Z,101298.78
2023-10-06T01:36:56.101Z,101300.16
2023-10-06T01:39:58.812Z,101301.50
2023-10-06T01:43:01.550Z,101301.13
2023-10-06T01:46:04.359Z,101304.87
2023-10-06T01:49:13.615Z,101304.13
2023-10-06T01:52:20.858Z,101308.16
2023-10-06T01:55:26.530Z,101307.09
2023-10-06T01:58:29.364Z,101305.19
2023-10-06T02:01:32.190Z,101312.53
2023-10-06T02:04:41.336Z,101305.19
2023-10-06T02:07:45.973Z,101305.03
2023-10-06T02:10:51.802Z,101308.69
2023-10-06T02:13:54.557Z,101304.72
2023-10-06T02:16:57.318Z,101301.25
2023-10-06T02:19:59.972Z,101305.69
2023-10-06T02:23:04.829Z,101305.28
2023-10-06T02:26:08.905Z,101304.44
2023-10-06T02:29:37.549Z,101306.28
2023-10-06T02:32:40.459Z,101300.88
2023-10-06T02:35:48.146Z,101308.78
2023-10-06T02:38:52.681Z,101306.25
2023-10-06T02:41:59.199Z,101307.91
2023-10-06T02:45:01.958Z,101307.50
2023-10-06T02:48:15.564Z,101310.22
2023-10-06T02:51:33.935Z,101311.59
2023-10-06T02:54:37.960Z,101315.06
2023-10-06T02:57:42.961Z,101312.59
2023-10-06T03:00:51.770Z,101316.59
2023-10-06T03:04:07.373Z,101315.06
2023-10-06T03:07:15.853Z,101315.19
2023-10-06T03:10:19.733Z,101324.22
2023-10-06T03:13:32.749Z,101315.63
2023-10-06T03:16:35.559Z,101327.12
2023-10-06T03:19:42.257Z,101328.09
2023-10-06T03:22:49.986Z,101332.25
2023-10-06T03:25:57.804Z,101341.28
2023-10-06T03:29:04.617Z,101342.53
2023-10-06T03:32:13.234Z,101334.63
2023-10-06T03:35:26.136Z,101336.84
2023-10-06T03:38:29.411Z,101338.06
2023-10-06T03:41:38.127Z,101346.25
2023-10-06T03:44:40.832Z,101339.91
2023-10-06T03:47:44.471Z,101334.09
2023-10-06T03:50:47.544Z,101341.84
2023-10-06T03:53:50.601Z,101343.38
2023-10-06T03:56:53.306Z,101339.66
2023-10-06T03:59:55.927Z,101348.94
2023-10-06T04:02:59.853Z,101350.91
2023-10-06T04:06:05.096Z,101351.19
2023-10-06T04:09:10.094Z,101350.19
2023-10-06T04:12:13.058Z,101360.75
2023-10-06T04:15:15.850Z,101357.00
2023-10-06T04:18:23.317Z,101360.47
2023-10-06T04:21:26.137Z,101367.25
2023-10-06T04:24:29.069Z,101363.22
2023-10-06T04:27:34.220Z,101370.03
2023-10-06T04:30:38.650Z,101369.19
2023-10-06T04:33:42.084Z,101378.91
2023-10-06T04:36:44.775Z,101380.00
2023-10-06T04:39:47.536Z,101371.69
2023-10-06T04:42:50.249Z,101384.72
2023-10-06T04:45:53.090Z,101381.78
2023-10-06T04:48:55.922Z,101386.22
2023-10-06T04:52:01.638Z,101387.78
2023-10-06T04:55:14.743Z,101384.03
2023-10-06T04:58:19.405Z,101396.37
2023-10-06T05:01:22.352Z,101392.22
2023-10-06T05:04:24.995Z,101404.56
2023-10-06T05:07:27.847Z,101407.47
2023-10-06T05:10:31.823Z,101402.59
2023-10-06T05:13:35.585Z,101409.94
2023-10-06T05:16:39.577Z,101407.59
2023-10-06T05:19:42.500Z,101403.00
2023-10-06T05:22:46.390Z,101413.97
2023-10-06T05:25:49.367Z,101407.03
2023-10-06T05:28:52.979Z,101414.66
2023-10-06T05:31:55.768Z,101407.16
2023-10-06T05:34:59.354Z,101414.91
2023-10-06T05:38:02.065Z,101409.94
2023-10-06T05:41:06.776Z,101414.38
2023-10-06T05:44:10.139Z,101406.06
2023-10-06T05:47:13.415Z,101423.09
2023-10-06T05:50:23.187Z,101422.12
2023-10-06T05:53:31.053Z,101420.47
2023-10-06T05:56:34.195Z,101421.00
2023-10-06T05:59:38.290Z,101420.72
2023-10-06T06:02:41.092Z,101434.88
2023-10-06T06:05:44.118Z,101428.50
2023-10-06T06:08:49.720Z,101433.78
2023-10-06T06:11:53.359Z,101439.56
2023-10-06T06:14:56.116Z,101450.06
2023-10-06T06:18:00.492Z,101456.69
2023-10-06T06:21:04.615Z,101454.53
2023-10-06T06:24:08.197Z,101460.84
2023-10-06T06:27:11.139Z,101461.50
2023-10-06T06:30:14.186Z,101475.25
2023-10-06T06:33:23.773Z,101487.69
2023-10-06T06:36:28.251Z,101494.25
2023-10-06T06:39:33.835Z,101500.81
2023-10-06T06:42:36.575Z,101502.41
2023-10-06T06:45:43.115Z,101495.09
2023-10-06T06:48:48.216Z,101504.22
2023-10-06T06:51:53.863Z,101512.13
2023-10-06T06:54:57.157Z,101506.06
2023-10-06T06:58:06.723Z,101511.37
2023-10-06T07:01:16.365Z,101508.94
2023-10-06T07:04:19.211Z,101505.34
2023-10-06T07:07:22.153Z,101509.22
2023-10-06T07:10:26.645Z,101518.94
2023-10-06T07:13:30.007Z,101517.34
2023-10-06T07:16:34.702Z,101516.88
2023-10-06T07:19:37.571Z,101526.19
2023-10-06T07:22:40.357Z,101524.75
2023-10-06T07:25:44.533Z,101527.44
2023-10-06T07:28:53.447Z,101539.81
2023-10-06T07:31:56.340Z,101539.81
2023-10-06T07:34:59.054Z,101526.06
2023-10-06T07:38:04.581Z,101534.03
2023-10-06T07:41:07.325Z,101535.69
2023-10-06T07:44:10.420Z,101528.03
2023-10-06T07:47:13.816Z,101521.53
2023-10-06T07:50:17.310Z,101521.69
2023-10-06T07:53:20.057Z,101520.00
2023-10-06T07:56:22.964Z,101522.81
2023-10-06T07:59:27.241Z,101533.56
2023-10-06T08:02:30.738Z,101541.19
2023-10-06T08:05:33.713Z,101538.94
2023-10-06T08:08:37.222Z,101547.00
2023-10-06T08:11:40.711Z,101540.53
2023-10-06T08:14:44.033Z,101537.53
2023-10-06T08:17:47.732Z,101543.66
2023-10-06T08:20:51.050Z,101545.59
2023-10-06T08:23:53.766Z,101545.06
2023-10-06T08:26:56.583Z,101552.63
2023-10-06T08:29:59.329Z,101551.63
2023-10-06T08:33:04.120Z,101557.00
2023-10-06T08:36:09.745Z,101548.66
2023-10-06T08:39:14.845Z,101552.16
2023-10-06T08:42:17.499Z,101555.28
2023-10-06T08:45:21.611Z,101552.09
2023-10-06T08:48:26.674Z,101555.91
2023-10-06T08:51:31.700Z,101554.56
2023-10-06T08:54:35.944Z,101558.91
2023-10-06T08:57:43.076Z,101552.94
2023-10-06T09:00:46.107Z,101551.81
2023-10-06T09:03:51.037Z,101539.56
2023-10-06T09:07:13.983Z,101544.47
2023-10-06T09:10:20.216Z,101542.63
2023-10-06T09:13:23.585Z,101532.31
2023-10-06T09:16:51.742Z,101535.75
2023-10-06T09:19:55.320Z,101532.34
2023-10-06T09:23:00.325Z,101539.34
2023-10-06T09:26:04.839Z,101535.63
2023-10-06T09:29:11.473Z,101529.28
2023-10-06T09:32:22.806Z,101532.69
2023-10-06T09:35:26.974Z,101524.72
2023-10-06T09:38:30.314Z,101521.25
2023-10-06T09:41:35.789Z,101514.03
2023-10-06T09:44:40.141Z,101513.41
2023-10-06T09:48:04.232Z,101511.53
2023-10-06T09:51:08.574Z,101509.88
2023-10-06T09:54:12.094Z,101496.41
2023-10-06T09:57:16.124Z,101502.38
2023-10-06T10:00:20.712Z,101495.38
2023-10-06T10:03:23.767Z,101499.44
2023-10-06T10:06:27.635Z,101496.19
2023-10-06T10:09:32.052Z,101495.06
2023-10-06T10:12:53.647Z,101489.94
2023-10-06T10:16:11.171Z,101485.97
2023-10-06T10:19:17.599Z,101489.19
2023-10-06T10:22:22.672Z,101474.19
2023-10-06T10:25:26.633Z,101478.22
2023-10-06T10:28:29.576Z,101480.66
2023-10-06T10:31:53.320Z,101468.13
2023-10-06T10:35:16.025Z,101460.72
2023-10-06T10:38:19.267Z,101462.19
2023-10-06T10:41:24.843Z,101452.31
2023-10-06T10:44:29.273Z,101447.47
2023-10-06T10:47:33.351Z,101454.25
2023-10-06T10:50:55.384Z,101449.38
2023-10-06T10:53:58.210Z,101453.56
2023-10-06T10:57:11.040Z,101446.06
2023-10-06T11:00:14.131Z,101431.91
2023-10-06T11:03:21.347Z,101434.75
2023-10-06T11:06:24.539Z,101430.44
2023-10-06T11:09:31.642Z,101431.41
2023-10-06T11:12:36.653Z,101435.91
2023-10-06T11:15:39.482Z,101430.25
2023-10-06T11:18:42.711Z,101425.59
2023-10-06T11:21:45.778Z,101412.94
2023-10-06T11:24:50.111Z,101404.50
2023-10-06T11:27:57.396Z,101401.75
2023-10-06T11:31:00.263Z,101385.75
2023-10-06T11:34:03.073Z,101388.66
2023-10-06T11:37:06.864Z,101380.94
2023-10-06T11:40:10.557Z,101379.19
2023-10-06T11:43:14.708Z,101372.87
2023-10-06T11:46:17.512Z,101364.59
2023-10-06T11:49:22.012Z,101351.81
2023-10-06T11:52:25.539Z,101344.69
2023-10-06T11:55:35.499Z,101341.44
2023-10-06T11:58:39.085Z,101339.34
2023-10-06T12:01:41.926Z,101336.59
2023-10-06T12:04:45.512Z,101340.56
2023-10-06T12:07:48.706Z,101325.13
2023-10-06T12:10:52.428Z,101322.69
2023-10-06T12:13:55.290Z,101333.19
2023-10-06T12:16:58.259Z,101331.56
2023-10-06T12:20:04.257Z,101332.78
2023-10-06T12:23:08.553Z,101322.69
2023-10-06T12:26:12.179Z,101320.88
2023-10-06T12:29:21.110Z,101310.53
2023-10-06T12:32:24.348Z,101316.38
2023-10-06T12:35:31.526Z,101307.69
2023-10-06T12:38:34.320Z,101308.97
2023-10-06T12:41:37.010Z,101297.06
2023-10-06T12:44:44.261Z,101307.91
2023-10-06T12:47:48.471Z,101289.22
2023-10-06T12:50:51.353Z,101296.38
2023-10-06T12:53:54.134Z,101303.53
2023-10-06T12:56:57.150Z,101314.72
2023-10-06T13:00:01.058Z,101308.78
2023-10-06T13:03:05.601Z,101304.34
2023-10-06T13:06:08.599Z,101307.16
2023-10-06T13:09:18.743Z,101294.28
2023-10-06T13:12:21.562Z,101300.03
2023-10-06T13:15:24.820Z,101292.03
2023-10-06T13:18:27.627Z,101299.16
2023-10-06T13:21:30.557Z,101294.37
2023-10-06T13:24:35.572Z,101283.47
2023-10-06T13:27:39.981Z,101277.72
2023-10-06T13:30:46.382Z,101284.22
2023-10-06T13:33:49.323Z,101283.19
2023-10-06T13:36:52.180Z,101291.94
2023-10-06T13:39:55.178Z,101292.44
2023-10-06T13:42:58.472Z,101279.41
2023-10-06T13:46:01.333Z,101275.03
2023-10-06T13:49:05.925Z,101273.72
2023-10-06T13:52:09.004Z,101263.91
2023-10-06T13:55:12.441Z,101266.09
2023-10-06T13:58:15.261Z,101254.00
2023-10-06T14:01:18.494Z,101252.75
2023-10-06T14:04:25.188Z,101249.91
2023-10-06T14:07:28.166Z,101246.06
2023-10-06T14:10:32.830Z,101237.53
2023-10-06T14:13:35.746Z,101231.94
2023-10-06T14:16:40.242Z,101229.25
2023-10-06T14:19:42.995Z,101226.44
2023-10-06T14:22:45.751Z,101217.09
2023-10-06T14:25:48.432Z,101212.56
2023-10-06T14:28:51.698Z,101204.41
2023-10-06T14:32:11.138Z,101203.34
2023-10-06T14:35:24.229Z,101199.87
2023-10-06T14:38:31.818Z,101194.91
2023-10-06T14:41:53.240Z,101191.84
2023-10-06T14:45:14.423Z,101197.72
2023-10-06T14:48:17.180Z,101196.41
2023-10-06T14:51:22.599Z,101186.25
2023-10-06T14:54:33.196Z,101183.03
2023-10-06T14:57:36.104Z,101180.97
2023-10-06T15:00:39.258Z,101187.75
2023-10-06T15:03:42.495Z,101195.91
2023-10-06T15:06:46.075Z,101186.19
2023-10-06T15:09:50.780Z,101193.63
2023-10-06T15:12:55.962Z,101192.16
2023-10-06T15:16:00.830Z,101194.97
2023-10-06T15:19:07.294Z,101191.94
2023-10-06T15:22:12.970Z,101185.13
2023-10-06T15:25:15.838Z,101179.53
2023-10-06T15:28:31.719Z,101192.28
2023-10-06T15:31:42.053Z,101190.47
2023-10-06T15:34:45.507Z,101198.75
2023-10-06T15:37:48.324Z,101196.78
2023-10-06T15:41:09.275Z,101205.69
2023-10-06T15:44:13.027Z,101214.25
2023-10-06T15:47:15.778Z,101212.50
2023-10-06T15:53:43.734Z,101212.69
2023-10-06T15:56:48.853Z,101210.16
2023-10-06T15:59:51.661Z,101208.41
2023-10-06T16:02:55.925Z,101209.91
2023-10-06T16:05:58.887Z,101195.75
2023-10-06T16:09:09.732Z,101190.66
2023-10-06T16:12:18.936Z,101199.31
2023-10-06T16:15:21.929Z,101197.91
2023-10-06T16:18:26.319Z,101199.22
2023-10-06T16:21:29.901Z,101206.94
2023-10-06T16:24:32.580Z,101204.56
2023-10-06T16:27:35.393Z,101215.59
2023-10-06T16:30:41.631Z,101202.28
2023-10-06T16:33:44.406Z,101207.13
2023-10-06T16:36:47.232Z,101206.34
2023-10-06T16:39:50.048Z,101195.56
2023-10-06T16:42:54.235Z,101197.16
2023-10-06T16:45:57.799Z,101197.09
2023-10-06T16:49:05.399Z,101194.72
2023-10-06T16:52:10.441Z,101191.84
2023-10-06T16:55:16.499Z,101189.09
2023-10-06T16:58:21.315Z,101186.16
2023-10-06T17:01:25.225Z,101188.88
2023-10-06T17:04:29.463Z,101191.91
2023-10-06T17:07:32.564Z,101183.13
2023-10-06T17:10:38.030Z,101179.34
2023-10-06T17:13:40.771Z,101177.41
2023-10-06T17:16:43.426Z,101168.16
2023-10-06T17:19:46.117Z,101173.16
2023-10-06T17:22:51.761Z,101177.97
2023-10-06T17:25:54.416Z,101162.59
2023-10-06T17:28:57.148Z,101166.41
2023-10-06T17:32:02.990Z,101164.56
2023-10-06T17:35:06.569Z,101158.28
2023-10-06T17:38:09.343Z,101158.28
2023-10-06T17:41:16.938Z,101146.53
2023-10-06T17:44:21.769Z,101150.03
2023-10-06T17:50:28.596Z,101149.28
2023-10-06T17:53:31.589Z,101158.50
2023-10-06T17:56:34.412Z,101170.72
2023-10-06T17:59:38.623Z,101169.06
2023-10-06T18:02:41.606Z,101175.16
2023-10-06T18:05:46.270Z,101168.00
2023-10-06T18:08:50.299Z,101165.00
2023-10-06T18:15:00.436Z,101169.91
2023-10-06T18:18:04.017Z,101172.66
2023-10-06T18:21:07.403Z,101167.34
2023-10-06T18:24:10.454Z,101167.44
2023-10-06T18:27:13.960Z,101161.44
2023-10-06T18:30:17.549Z,101167.03
2023-10-06T18:33:20.850Z,101168.47
2023-10-06T18:36:24.320Z,101165.78
2023-10-06T18:39:28.645Z,101167.41
2023-10-06T18:42:31.830Z,101155.41
2023-10-06T18:45:34.957Z,101159.19
2023-10-06T18:48:39.117Z,101160.78
2023-10-06T18:51:42.404Z,101157.38
2023-10-06T18:54:45.600Z,101154.53
2023-10-06T18:57:48.355Z,101148.50
2023-10-06T19:00:52.539Z,101146.31
2023-10-06T19:03:55.939Z,101141.78
2023-10-06T19:06:58.947Z,101146.16
2023-10-06T19:10:03.634Z,101155.34
2023-10-06T19:13:06.861Z,101147.50
2023-10-06T19:16:12.570Z,101157.66
2023-10-06T19:19:16.624Z,101158.41
2023-10-06T19:22:20.316Z,101162.59
2023-10-06T19:25:24.192Z,101160.25
2023-10-06T19:28:29.778Z,101154.44
2023-10-06T19:31:32.984Z,101150.75
2023-10-06T19:34:36.315Z,101139.13
2023-10-06T19:37:40.271Z,101138.59
2023-10-06T19:40:43.165Z,101134.22
2023-10-06T19:43:46.628Z,101131.87
2023-10-06T19:46:49.915Z,101117.22
2023-10-06T19:49:53.698Z,101126.09
2023-10-06T19:52:57.331Z,101123.91
2023-10-06T19:56:00.143Z,101125.47
2023-10-06T19:59:03.995Z,101112.44
2023-10-06T20:02:11.174Z,101117.31
2023-10-06T20:05:14.897Z,101119.53
2023-10-06T20:08:18.075Z,101118.31
2023-10-06T20:11:20.889Z,101130.12
2023-10-06T20:14:23.650Z,101126.94
2023-10-06T20:17:26.460Z,101125.44
2023-10-06T20:20:31.357Z,101124.03
2023-10-06T20:23:34.032Z,101125.56
2023-10-06T20:26:36.975Z,101120.59
2023-10-06T20:29:40.615Z,101121.28
2023-10-06T20:32:55.813Z,101123.06
2023-10-06T20:35:59.326Z,101120.03
2023-10-06T20:39:10.301Z,101132.37
2023-10-06T20:42:14.359Z,101130.84
2023-10-06T20:45:17.274Z,101128.63
2023-10-06T20:48:20.645Z,101131.53
2023-10-06T20:51:25.994Z,101130.16
2023-10-06T20:54:28.696Z,101131.41
2023-10-06T20:57:31.637Z,101119.09
2023-10-06T21:00:34.391Z,101120.19
2023-10-06T21:03:37.194Z,101120.34
2023-10-06T21:06:40.066Z,101119.94
2023-10-06T21:09:45.091Z,101111.34
2023-10-06T21:12:47.889Z,101107.31
2023-10-06T21:15:50.609Z,101109.00
2023-10-06T21:18:53.359Z,101095.88
2023-10-06T21:21:56.098Z,101106.62
2023-10-06T21:24:58.767Z,101106.38
2023-10-06T21:28:01.797Z,101109.97
2023-10-06T21:31:08.322Z,101108.84
2023-10-06T21:34:11.152Z,101113.56
2023-10-06T21:37:14.511Z,101112.88
2023-10-06T21:40:17.698Z,101106.38
2023-10-06T21:43:20.426Z,101111.63
2023-10-06T21:46:23.212Z,101116.47
2023-10-06T21:49:28.737Z,101116.06
2023-10-06T21:52:31.474Z,101115.22
2023-10-06T21:55:34.274Z,101119.09
2023-10-06T21:58:37.790Z,101114.81
2023-10-06T22:01:40.592Z,101107.22
2023-10-06T22:04:43.625Z,101103.03
2023-10-06T22:07:46.495Z,101110.06
2023-10-06T22:10:49.286Z,101112.84
2023-10-06T22:13:52.119Z,101109.53
2023-10-06T22:16:56.475Z,101112.97
2023-10-06T22:19:59.273Z,101109.66
2023-10-06T22:23:02.124Z,101103.72
2023-10-06T22:26:05.017Z,101108.97
2023-10-06T22:29:13.540Z,101108.00
2023-10-06T22:32:16.317Z,101103.03
2023-10-06T22:35:18.986Z,101104.69
2023-10-06T22:38:21.698Z,101101.37
2023-10-06T22:41:24.989Z,101102.19
2023-10-06T22:44:27.832Z,101094.44
2023-10-06T22:47:30.801Z,101092.94
2023-10-06T22:50:34.544Z,101086.69
2023-10-06T22:53:39.733Z,101090.16
2023-10-06T22:56:42.348Z,101086.69
2023-10-06T22:59:48.397Z,101083.12
2023-10-06T23:02:55.263Z,101081.44
2023-10-06T23:06:00.725Z,101076.34
2023-10-06T23:09:03.900Z,101078.41
2023-10-06T23:12:06.691Z,101078.53
2023-10-06T23:15:09.832Z,101077.84
2023-10-06T23:18:12.971Z,101073.44
2023-10-06T23:21:15.621Z,101076.19
2023-10-06T23:24:18.408Z,101075.09
2023-10-06T23:27:22.317Z,101078.41
2023-10-06T23:30:25.046Z,101071.50
2023-10-06T23:33:28.113Z,101072.31
2023-10-06T23:36:30.853Z,101066.09
2023-10-06T23:39:39.466Z,101073.16
2023-10-06T23:42:43.421Z,101073.72
2023-10-06T23:45:47.249Z,101072.47
2023-10-06T23:48:53.277Z,101066.25
2023-10-06T23:51:57.110Z,101059.34
2023-10-06T23:54:59.890Z,101057.41
2023-10-06T23:58:04.668Z,101052.84
